GCLPGCLA

Guest
Details From GCLP - Gran Canaria - Gando
To GCLA - La Palma
Flight Number -
Tags Generated
Created
Modified
Stats Distance 132 nm / 244 km
Max Altitude 0 ft / 0 m
Waypoints 2
Social Downloads 2
Likes 0
Share VATSIM

Download

Looking for another format? Having issues loading an existing format? Contact us
Advertisement - Login to hide

Notes

Generated

Route

GCLP GCLA

ID Type Via Altitude Latitude Longitude Leg Dist Tot Dist Heading (true) Name
O GCLP APT - 0 ft / 0 m 27.91818˚ -15.39035˚ - 0 nm - -
O GCLA APT - 0 ft / 0 m 28.61659˚ -17.75542˚ 131 nm 131 nm 289° / 288° -

Altitude Profile

Advertisement - Login to hide

GCLP

Details ICAO GCLP (LPA)
Name Gran Canaria
Region Canary Islands
Timezone Atlantic/Canary (UTC+1.0)
Stats Elevation 77 ft / 23 m (AMSL)
Location 27.931544° -15.385592°
Runways 2
Magnetic Variation 4.635° W

METAR

GCLP 210530Z 36012KT 9999 FEW030 BKN045 19/13 Q1015 NOSIG

Decode

TAF

TAF GCLP 210200Z 2103/2203 34011KT 9999 FEW030 TX23/2115Z TN16/2105Z= TAF AMD KLSV 210229Z 2102/2205 14012KT 9999 FEW200 QNH2957INS TEMPO 2102/2106 14015G25KT 510009 BECMG 2109/2110 VRB06KT 9999 SCT180 QNH2963INS BECMG 2120/2121 18012KT 9999 SCT080 BKN180 QNH2964INS TEMPO 2122/2202 18015G25KT VCTS SCT060CB 510009 TX34/2121Z TN22/2112Z

Decode

Departure Runways

ID Width Length Bearing (true) Bearing (mag) Surface Threshold Offset Overrun Length
03L 148 ft / 45 m 10,203 ft / 3,110 m 21.33° 25.96° Asphalt 0 ft / 0 m 656 ft / 200 m
03R 148 ft / 45 m 10,200 ft / 3,109 m 21.32° 25.95° Asphalt 0 ft / 0 m 673 ft / 205 m
21L 148 ft / 45 m 10,200 ft / 3,109 m 201.33° 205.96° Asphalt 0 ft / 0 m 689 ft / 210 m
21R 148 ft / 45 m 10,203 ft / 3,110 m 201.33° 205.96° Asphalt 0 ft / 0 m 755 ft / 230 m

GCLA

Details ICAO GCLA (SPC)
Name La Palma
Region Canary Islands
Timezone Atlantic/Canary (UTC+1.0)
Stats Elevation 107 ft / 33 m (AMSL)
Location 28.626480° -17.755613°
Runways 1
Magnetic Variation 5.471° W

METAR

GCLA 210530Z AUTO 30003KT 240V010 9999 FEW047 17/09 Q1016

Decode

TAF

TAF GCLA 210200Z 2103/2203 23005KT 9999 SCT040 TX21/2115Z TN17/2105Z

Decode

Destination Runways

ID Width Length Bearing (true) Bearing (mag) Surface Threshold Offset Overrun Length
01 148 ft / 45 m 7,240 ft / 2,207 m 359.02° 4.49° Asphalt 0 ft / 0 m 279 ft / 85 m
19 148 ft / 45 m 7,240 ft / 2,207 m 179.02° 184.49° Asphalt 0 ft / 0 m 236 ft / 72 m

Popular Alternatives